Time;durP1;ratioP1;P1;durP2;ratioP2;P2;SDS_P1;SDS_P2;PMS_P1;PMS_P2;Temp;Humidity;BMP_temperature;BMP_pressure;BME280_temperature;BME280_humidity;BME280_pressure;Samples;Min_cycle;Max_cycle;Signal;HPM_P1;HPM_P2
2023/12/15 00:00:55;;;;;;;20.40;11.93;;;;;;;6.44;76.74;102694.84;7392075;19;20014;-61
2023/12/15 00:03:23;;;;;;;19.17;11.45;;;;;;;6.50;76.68;102692.06;7392665;19;20035;-62
2023/12/15 00:05:51;;;;;;;20.05;11.55;;;;;;;6.45;76.61;102699.22;7393594;19;20019;-59
2023/12/15 00:08:19;;;;;;;22.30;11.82;;;;;;;6.48;76.65;102695.63;7393648;19;20468;-59
2023/12/15 00:10:47;;;;;;;21.48;11.95;;;;;;;6.52;76.59;102699.91;7391954;19;20023;-62
2023/12/15 00:13:15;;;;;;;18.55;10.77;;;;;;;6.49;76.69;102694.75;7392033;19;20051;-59
2023/12/15 00:15:45;;;;;;;20.23;12.05;;;;;;;6.43;77.18;102703.66;7392417;19;20015;-60
2023/12/15 00:18:13;;;;;;;18.42;10.82;;;;;;;6.32;76.88;102705.69;7393174;19;20023;-60
2023/12/15 00:20:41;;;;;;;19.10;10.73;;;;;;;6.35;77.06;102713.50;7391800;19;20381;-59
2023/12/15 00:23:10;;;;;;;19.48;11.15;;;;;;;6.29;77.12;102713.63;7391575;19;20021;-60
2023/12/15 00:25:38;;;;;;;19.52;10.90;;;;;;;6.23;77.25;102714.66;7393338;19;20018;-58
2023/12/15 00:28:05;;;;;;;21.13;11.40;;;;;;;6.30;77.19;102718.88;7394019;19;20022;-59
2023/12/15 00:30:33;;;;;;;19.75;11.32;;;;;;;6.32;77.17;102721.47;7391899;19;20018;-60
2023/12/15 00:33:02;;;;;;;19.45;11.52;;;;;;;6.41;76.85;102721.25;7393529;19;20374;-61
2023/12/15 00:35:30;;;;;;;19.15;11.23;;;;;;;6.38;76.85;102721.31;7393261;19;20018;-61
2023/12/15 00:37:57;;;;;;;23.38;12.43;;;;;;;6.34;76.97;102722.31;7393291;19;20388;-60
2023/12/15 00:40:25;;;;;;;19.63;11.40;;;;;;;6.31;77.04;102714.47;7391705;19;20043;-59
2023/12/15 00:42:54;;;;;;;22.70;12.52;;;;;;;6.34;77.27;102728.44;7391570;19;20025;-60
2023/12/15 00:45:22;;;;;;;19.27;11.43;;;;;;;6.29;77.27;102730.28;7397381;19;20019;-60
2023/12/15 00:47:49;;;;;;;20.55;11.13;;;;;;;6.26;77.00;102724.25;7389490;19;20021;-60
2023/12/15 00:50:17;;;;;;;22.85;12.57;;;;;;;6.41;77.20;102736.16;7389852;19;20668;-60
2023/12/15 00:52:45;;;;;;;20.88;11.40;;;;;;;6.49;76.75;102728.97;7393475;19;20039;-61
2023/12/15 00:55:13;;;;;;;19.30;11.82;;;;;;;6.48;76.50;102732.47;7393218;19;20021;-61
2023/12/15 00:57:41;;;;;;;21.75;13.02;;;;;;;6.39;76.82;102730.94;7391441;19;20014;-61
2023/12/15 01:00:09;;;;;;;20.77;12.40;;;;;;;6.36;77.04;102720.50;7391251;19;20381;-61
2023/12/15 01:02:37;;;;;;;21.50;13.20;;;;;;;6.42;76.98;102736.13;7391011;19;20019;-61
2023/12/15 01:05:05;;;;;;;20.83;12.82;;;;;;;6.37;77.13;102724.84;7391683;19;20023;-61
2023/12/15 01:07:33;;;;;;;22.23;12.65;;;;;;;6.34;77.35;102741.59;7391928;19;20018;-61
2023/12/15 01:10:01;;;;;;;20.73;12.95;;;;;;;6.42;77.01;102736.13;7390688;19;20026;-62
2023/12/15 01:12:29;;;;;;;22.73;12.65;;;;;;;6.30;77.48;102733.81;7390062;19;20018;-62
2023/12/15 01:14:57;;;;;;;23.42;13.38;;;;;;;6.28;78.04;102728.56;7392774;19;20026;-62
2023/12/15 01:17:26;;;;;;;20.52;12.02;;;;;;;6.44;77.17;102746.63;7390783;19;20035;-62
2023/12/15 01:19:54;;;;;;;24.02;12.88;;;;;;;6.38;77.45;102747.63;7391728;19;20023;-61
2023/12/15 01:22:21;;;;;;;23.48;13.30;;;;;;;6.47;77.53;102759.69;7390928;19;20352;-61
2023/12/15 01:24:49;;;;;;;24.05;13.23;;;;;;;6.37;78.22;102755.56;7391824;19;20035;-62
2023/12/15 01:27:17;;;;;;;23.02;12.57;;;;;;;6.43;78.11;102758.06;7392304;19;20032;-62
2023/12/15 01:29:45;;;;;;;22.63;13.20;;;;;;;6.46;77.94;102753.59;7392453;19;20019;-62
2023/12/15 01:32:13;;;;;;;22.55;13.00;;;;;;;6.50;77.97;102757.88;7391043;19;20122;-62
2023/12/15 01:34:41;;;;;;;22.17;12.40;;;;;;;6.54;77.91;102764.78;7393314;19;20018;-61
2023/12/15 01:37:09;;;;;;;23.20;13.25;;;;;;;6.47;78.41;102757.06;7392606;19;20039;-61
2023/12/15 01:39:36;;;;;;;21.67;12.88;;;;;;;6.58;78.35;102770.84;7390865;19;20430;-61
2023/12/15 01:42:04;;;;;;;21.50;12.82;;;;;;;6.63;78.41;102770.72;7388300;19;20018;-61
2023/12/15 01:44:33;;;;;;;22.88;14.23;;;;;;;6.52;78.79;102771.84;7391617;19;20018;-61
2023/12/15 01:47:01;;;;;;;22.80;13.68;;;;;;;6.44;79.20;102771.16;7391866;19;20031;-61
2023/12/15 01:49:32;;;;;;;23.65;13.95;;;;;;;6.50;79.72;102778.06;7391466;19;20035;-62
2023/12/15 01:52:00;;;;;;;25.17;14.02;;;;;;;6.53;79.43;102778.00;7391072;19;20019;-61
2023/12/15 01:54:28;;;;;;;24.40;13.68;;;;;;;6.55;79.75;102787.56;7391855;19;20032;-61
2023/12/15 01:56:56;;;;;;;23.70;13.30;;;;;;;6.49;79.71;102781.59;7391264;19;20022;-61
2023/12/15 01:59:24;;;;;;;23.33;13.43;;;;;;;6.38;80.52;102792.38;7393519;19;20021;-61
2023/12/15 02:01:52;;;;;;;22.85;13.35;;;;;;;6.37;80.36;102785.34;7395755;19;20436;-61
2023/12/15 02:04:20;;;;;;;23.90;13.35;;;;;;;6.36;80.56;102781.00;7398360;19;20026;-61
2023/12/15 02:06:47;;;;;;;24.50;15.07;;;;;;;6.35;80.64;102777.50;7397355;19;20011;-61
2023/12/15 02:09:15;;;;;;;23.55;13.50;;;;;;;6.31;80.76;102775.00;7398939;19;20489;-61
2023/12/15 02:11:43;;;;;;;23.70;13.65;;;;;;;6.34;81.24;102782.81;7395364;19;20096;-61
2023/12/15 02:14:11;;;;;;;23.58;14.00;;;;;;;6.38;81.47;102781.00;7399022;19;20626;-61
2023/12/15 02:16:39;;;;;;;24.55;14.13;;;;;;;6.41;80.98;102784.41;7399169;19;20395;-61
2023/12/15 02:19:07;;;;;;;25.38;14.95;;;;;;;6.31;81.43;102778.50;7397263;19;20373;-61
2023/12/15 02:21:35;;;;;;;25.83;15.05;;;;;;;6.35;81.66;102780.16;7394890;19;20025;-61
2023/12/15 02:24:03;;;;;;;24.65;13.85;;;;;;;6.31;81.63;102785.53;7394556;19;20018;-62
2023/12/15 02:26:31;;;;;;;24.60;14.75;;;;;;;6.37;81.70;102781.88;7397529;19;20048;-61
2023/12/15 02:28:58;;;;;;;24.70;13.80;;;;;;;6.42;80.97;102780.88;7397112;19;20377;-62
2023/12/15 02:31:27;;;;;;;25.73;14.20;;;;;;;6.43;81.19;102790.50;7394372;19;20014;-62
2023/12/15 02:33:54;;;;;;;25.42;14.70;;;;;;;6.43;81.04;102792.25;7396935;19;20015;-61
2023/12/15 02:36:23;;;;;;;23.95;14.13;;;;;;;6.49;80.86;102787.72;7396960;19;20025;-62
2023/12/15 02:38:51;;;;;;;27.92;15.30;;;;;;;6.50;80.91;102788.59;7397173;19;20014;-61
2023/12/15 02:41:21;;;;;;;23.58;13.95;;;;;;;6.43;80.96;102784.38;7396793;19;20047;-61
2023/12/15 02:43:49;;;;;;;24.02;14.50;;;;;;;6.43;81.14;102792.25;7394548;19;20042;-61
2023/12/15 02:46:16;;;;;;;27.92;14.30;;;;;;;6.42;81.11;102796.66;7396935;19;20022;-62
2023/12/15 02:48:44;;;;;;;23.00;14.45;;;;;;;6.50;81.26;102807.88;7396148;19;20022;-61
2023/12/15 02:51:24;;;;;;;26.42;14.45;;;;;;;6.46;81.16;102800.09;7394234;19;20412;-63
2023/12/15 02:53:52;;;;;;;25.55;14.90;;;;;;;6.48;81.26;102799.13;7395230;19;20026;-62
2023/12/15 02:56:20;;;;;;;23.05;13.90;;;;;;;6.47;81.34;102801.81;7396157;19;20051;-62
2023/12/15 02:58:48;;;;;;;23.55;13.98;;;;;;;6.49;81.58;102800.88;7396039;19;20031;-62
2023/12/15 03:01:16;;;;;;;24.45;14.13;;;;;;;6.48;81.56;102796.50;7393877;19;20019;-62
2023/12/15 03:03:44;;;;;;;25.40;14.98;;;;;;;6.44;81.83;102804.50;7393770;19;20147;-61
2023/12/15 03:06:12;;;;;;;24.08;14.75;;;;;;;6.54;81.57;102804.25;7394471;19;20537;-61
2023/12/15 03:08:40;;;;;;;25.63;15.27;;;;;;;6.54;81.72;102806.03;7395899;19;20010;-61
2023/12/15 03:11:08;;;;;;;24.45;13.73;;;;;;;6.61;81.88;102804.13;7391845;19;20333;-61
2023/12/15 03:13:38;;;;;;;27.77;15.18;;;;;;;6.55;81.76;102798.09;7395749;19;20035;-61
2023/12/15 03:16:11;;;;;;;26.52;14.60;;;;;;;6.50;82.23;102794.72;7394451;19;20031;-61
2023/12/15 03:18:38;;;;;;;24.40;14.60;;;;;;;6.50;82.37;102791.22;7395608;19;20051;-62
2023/12/15 03:21:07;;;;;;;28.83;15.30;;;;;;;6.46;82.23;102782.53;7392923;19;20078;-62
2023/12/15 03:23:34;;;;;;;26.73;15.35;;;;;;;6.49;82.24;102787.72;7393593;19;20014;-61
2023/12/15 03:26:11;;;;;;;26.63;15.13;;;;;;;6.42;82.69;102790.53;7394565;19;20025;-61
2023/12/15 03:28:42;;;;;;;26.20;14.90;;;;;;;6.35;82.98;102792.44;7395875;19;20056;-62
2023/12/15 03:31:10;;;;;;;27.63;14.88;;;;;;;6.49;83.00;102800.03;7392718;19;20046;-62
2023/12/15 03:33:38;;;;;;;26.60;14.82;;;;;;;6.56;82.79;102791.94;7393532;19;20478;-63
2023/12/15 03:36:06;;;;;;;26.65;15.27;;;;;;;6.53;82.90;102797.28;7395297;19;20026;-63
2023/12/15 03:38:34;;;;;;;25.15;14.65;;;;;;;6.52;82.63;102792.03;7393380;19;20571;-63
2023/12/15 03:41:02;;;;;;;27.20;14.77;;;;;;;6.54;82.77;102791.09;7391200;19;20047;-63
2023/12/15 03:43:30;;;;;;;26.25;15.15;;;;;;;6.44;82.90;102786.94;7393477;19;20037;-63
2023/12/15 03:45:58;;;;;;;26.83;15.40;;;;;;;6.53;83.02;102791.16;7395047;19;20078;-63
2023/12/15 03:48:29;;;;;;;26.38;15.35;;;;;;;6.58;82.56;102795.38;7394421;19;20014;-63
2023/12/15 03:50:59;;;;;;;24.92;15.13;;;;;;;6.50;82.85;102789.44;7392494;19;20014;-64
2023/12/15 03:53:27;;;;;;;24.95;14.48;;;;;;;6.51;83.04;102798.19;7394754;19;20026;-63
2023/12/15 03:55:55;;;;;;;28.42;15.13;;;;;;;6.56;82.79;102797.22;7393269;19;20027;-64
2023/12/15 03:58:22;;;;;;;25.42;14.52;;;;;;;6.57;82.88;102796.31;7394378;19;20030;-65
2023/12/15 04:00:51;;;;;;;28.15;15.52;;;;;;;6.56;83.00;102791.06;7390721;19;20039;-63
2023/12/15 04:03:19;;;;;;;26.17;14.88;;;;;;;6.47;83.22;102779.00;7392872;19;20018;-63
2023/12/15 04:05:48;;;;;;;24.10;14.05;;;;;;;6.51;83.17;102785.03;7393427;19;20023;-64
2023/12/15 04:08:16;;;;;;;24.50;14.20;;;;;;;6.57;83.02;102793.66;7394442;19;20014;-63
2023/12/15 04:10:44;;;;;;;24.90;14.68;;;;;;;6.64;82.82;102801.41;7392369;19;20512;-63
2023/12/15 04:13:11;;;;;;;26.38;15.10;;;;;;;6.59;82.89;102810.28;7393490;19;20019;-63
2023/12/15 04:15:39;;;;;;;24.50;14.75;;;;;;;6.55;83.00;102816.50;7393516;19;20035;-64
2023/12/15 04:18:07;;;;;;;27.27;14.35;;;;;;;6.60;83.09;102797.97;7393352;19;20479;-64
2023/12/15 04:20:35;;;;;;;25.70;15.50;;;;;;;6.66;83.02;102818.03;7392395;19;20056;-64
2023/12/15 04:23:03;;;;;;;25.77;14.77;;;;;;;6.64;83.06;102819.81;7391536;19;20010;-64
2023/12/15 04:25:31;;;;;;;23.38;14.13;;;;;;;6.74;82.81;102834.50;7393608;19;20014;-64
2023/12/15 04:27:59;;;;;;;24.80;14.68;;;;;;;6.79;82.84;102837.88;7393153;19;20030;-66
2023/12/15 04:30:28;;;;;;;30.75;15.13;;;;;;;6.81;82.90;102842.22;7391426;19;20042;-66
2023/12/15 04:32:55;;;;;;;23.88;13.88;;;;;;;6.76;82.96;102844.13;7391916;19;20026;-66
2023/12/15 04:35:23;;;;;;;25.40;14.90;;;;;;;6.74;83.09;102840.63;7393693;19;20029;-66
2023/12/15 04:37:51;;;;;;;25.15;14.40;;;;;;;6.81;83.45;102838.72;7393050;19;20014;-65
2023/12/15 04:40:20;;;;;;;24.48;14.23;;;;;;;6.81;83.43;102830.84;7391490;19;20090;-64
2023/12/15 04:42:48;;;;;;;25.85;14.80;;;;;;;6.81;83.52;102849.25;7390764;19;20022;-63
2023/12/15 04:45:16;;;;;;;27.75;15.18;;;;;;;6.78;83.69;102839.66;7392698;19;20037;-61
2023/12/15 04:47:44;;;;;;;27.70;15.77;;;;;;;6.83;83.84;102840.44;7391390;19;20086;-63
2023/12/15 04:50:12;;;;;;;27.83;16.48;;;;;;;6.93;83.44;102843.69;7391120;19;20043;-63
2023/12/15 04:52:40;;;;;;;28.50;16.02;;;;;;;6.86;83.72;102851.78;7392723;19;20074;-63
2023/12/15 04:55:08;;;;;;;28.15;16.13;;;;;;;6.88;83.96;102857.88;7392324;19;20082;-63
2023/12/15 04:57:36;;;;;;;28.73;16.10;;;;;;;6.92;83.83;102854.28;7392200;19;20391;-61
2023/12/15 05:00:07;;;;;;;27.25;15.85;;;;;;;6.97;83.89;102852.38;7391249;19;20439;-62
2023/12/15 05:02:35;;;;;;;29.50;16.50;;;;;;;7.00;83.93;102862.84;7391996;19;20557;-62
2023/12/15 05:05:03;;;;;;;28.08;16.00;;;;;;;6.97;83.74;102855.88;7392542;19;20047;-63
2023/12/15 05:07:31;;;;;;;29.55;17.35;;;;;;;7.00;84.07;102855.81;7390749;19;20050;-63
2023/12/15 05:09:59;;;;;;;31.17;16.88;;;;;;;6.96;84.16;102866.47;7391131;19;20022;-63
2023/12/15 05:12:28;;;;;;;32.40;16.90;;;;;;;7.04;84.23;102875.03;7391494;19;20372;-63
2023/12/15 05:14:56;;;;;;;30.30;16.10;;;;;;;7.04;84.06;102881.16;7392542;19;20025;-63
2023/12/15 05:17:23;;;;;;;30.40;17.17;;;;;;;7.01;84.42;102886.50;7391819;19;20014;-63
2023/12/15 05:19:54;;;;;;;27.42;15.73;;;;;;;7.05;84.56;102893.44;7391685;19;20019;-63
2023/12/15 05:22:21;;;;;;;29.63;15.50;;;;;;;7.13;84.45;102893.25;7391597;19;20049;-64
2023/12/15 05:24:51;;;;;;;29.60;17.00;;;;;;;7.14;84.32;102891.50;7388825;19;20077;-65
2023/12/15 05:27:19;;;;;;;32.55;17.10;;;;;;;7.12;84.51;102895.91;7391779;19;20508;-61
2023/12/15 05:29:47;;;;;;;31.42;17.75;;;;;;;7.13;84.50;102892.38;7389784;19;20015;-60
2023/12/15 05:32:16;;;;;;;32.40;17.63;;;;;;;7.15;85.09;102890.59;7391243;19;20021;-60
2023/12/15 05:34:44;;;;;;;31.13;17.50;;;;;;;7.17;85.07;102889.63;7398158;19;20057;-60
2023/12/15 05:37:12;;;;;;;36.42;17.65;;;;;;;7.19;84.95;102897.50;7399558;19;20014;-61
2023/12/15 05:39:44;;;;;;;37.70;17.17;;;;;;;7.25;85.04;102900.88;7398752;19;20039;-60
2023/12/15 05:42:13;;;;;;;32.75;17.35;;;;;;;7.27;85.07;102906.94;7398557;19;20047;-59
2023/12/15 05:44:41;;;;;;;32.88;18.10;;;;;;;7.24;85.20;102906.16;7396407;19;20015;-60
2023/12/15 05:47:09;;;;;;;33.17;17.75;;;;;;;7.33;85.24;102913.84;7399280;19;20019;-60
2023/12/15 05:49:40;;;;;;;29.80;16.48;;;;;;;7.28;85.23;102919.22;7398141;19;20021;-61
2023/12/15 05:52:09;;;;;;;32.38;16.70;;;;;;;7.33;85.25;102913.84;7397984;19;20531;-61
2023/12/15 05:54:39;;;;;;;33.33;16.70;;;;;;;7.38;85.20;102917.22;7396732;19;20039;-60
2023/12/15 05:57:07;;;;;;;35.97;16.88;;;;;;;7.35;85.29;102916.44;7398611;19;20018;-61
2023/12/15 05:59:39;;;;;;;32.67;17.15;;;;;;;7.31;85.21;102915.63;7397785;19;20360;-61
2023/12/15 06:02:09;;;;;;;30.67;16.10;;;;;;;7.29;85.48;102920.09;7396276;19;20037;-61
2023/12/15 06:04:37;;;;;;;33.75;16.98;;;;;;;7.30;85.57;102916.56;7396213;19;20043;-60
2023/12/15 06:07:05;;;;;;;32.13;16.35;;;;;;;7.41;85.39;102922.41;7398214;19;20025;-60
2023/12/15 06:09:35;;;;;;;30.67;16.48;;;;;;;7.39;85.49;102929.47;7396364;19;20014;-61
2023/12/15 06:12:05;;;;;;;31.70;16.02;;;;;;;7.33;85.63;102927.88;7397607;19;20070;-61
2023/12/15 06:14:35;;;;;;;34.88;16.55;;;;;;;7.38;85.54;102929.53;7397230;19;20341;-61
2023/12/15 06:17:06;;;;;;;31.38;16.33;;;;;;;7.29;85.70;102930.63;7397681;19;20339;-60
2023/12/15 06:19:38;;;;;;;33.70;16.60;;;;;;;7.39;85.48;102928.63;7397392;19;20081;-60
2023/12/15 06:22:06;;;;;;;33.85;16.73;;;;;;;7.31;85.92;102921.78;7396961;19;20056;-60
2023/12/15 06:24:33;;;;;;;30.88;15.77;;;;;;;7.42;85.71;102931.19;7396516;19;20037;-59
2023/12/15 06:27:03;;;;;;;33.90;15.85;;;;;;;7.46;85.33;102936.34;7397736;19;20078;-60
2023/12/15 06:29:31;;;;;;;32.42;16.33;;;;;;;7.35;85.86;102933.09;7397004;19;20360;-64
2023/12/15 06:31:59;;;;;;;33.47;16.67;;;;;;;7.42;85.90;102934.69;7396724;19;20026;-64
2023/12/15 06:34:27;;;;;;;29.23;15.35;;;;;;;7.48;85.35;102939.81;7397801;19;20022;-64
2023/12/15 06:36:54;;;;;;;30.80;15.75;;;;;;;7.44;85.43;102932.88;7395581;19;20082;-64
2023/12/15 06:39:22;;;;;;;32.33;16.55;;;;;;;7.48;85.33;102938.97;7396967;19;20022;-64
2023/12/15 06:41:50;;;;;;;32.40;15.32;;;;;;;7.52;85.40;102945.88;7394003;19;20022;-64
2023/12/15 06:44:20;;;;;;;31.58;16.40;;;;;;;7.49;85.53;102938.91;7394074;19;20288;-64
2023/12/15 06:46:48;;;;;;;33.65;16.60;;;;;;;7.51;85.22;102947.63;7395721;19;20493;-64
2023/12/15 06:49:18;;;;;;;30.40;15.60;;;;;;;7.48;85.29;102955.63;7397462;19;20030;-64
2023/12/15 06:51:46;;;;;;;28.02;14.93;;;;;;;7.49;85.38;102956.50;7393729;19;20077;-64
2023/12/15 06:54:14;;;;;;;34.47;15.90;;;;;;;7.52;85.36;102962.56;7396728;19;20021;-64
2023/12/15 06:56:42;;;;;;;29.48;14.90;;;;;;;7.58;85.24;102965.03;7396733;19;20028;-64
2023/12/15 06:59:11;;;;;;;29.92;15.25;;;;;;;7.68;84.82;102970.06;7396461;19;20019;-64
2023/12/15 07:01:40;;;;;;;34.80;15.70;;;;;;;7.69;84.92;102977.06;7393817;19;20026;-61
2023/12/15 07:04:08;;;;;;;32.75;15.35;;;;;;;7.63;85.02;102982.50;7395457;19;20019;-61
2023/12/15 07:06:37;;;;;;;30.50;14.85;;;;;;;7.63;85.02;102985.13;7396044;19;20033;-61
2023/12/15 07:09:05;;;;;;;36.00;16.65;;;;;;;7.65;84.64;102991.25;7396009;19;20042;-61
2023/12/15 07:11:32;;;;;;;38.40;15.40;;;;;;;7.63;84.98;102993.03;7392022;19;20023;-61
2023/12/15 07:14:01;;;;;;;31.92;16.33;;;;;;;7.66;84.74;102987.69;7395609;19;20508;-63
2023/12/15 07:16:29;;;;;;;38.50;15.75;;;;;;;7.62;85.01;102988.69;7395511;19;20018;-63
2023/12/15 07:18:57;;;;;;;34.17;14.50;;;;;;;7.65;85.21;102993.88;7395549;19;20031;-63
2023/12/15 07:21:25;;;;;;;30.35;15.27;;;;;;;7.68;85.25;103002.59;7391906;19;20011;-64
2023/12/15 07:23:53;;;;;;;33.67;15.98;;;;;;;7.58;85.19;102999.28;7395443;19;20493;-64
2023/12/15 07:26:21;;;;;;;30.60;14.20;;;;;;;7.61;85.42;103013.31;7395886;19;20027;-64
2023/12/15 07:28:49;;;;;;;27.55;14.55;;;;;;;7.67;85.09;103018.41;7395859;19;20018;-64
2023/12/15 07:31:16;;;;;;;32.10;14.95;;;;;;;7.66;85.43;103021.97;7393805;19;20042;-64
2023/12/15 07:33:44;;;;;;;35.80;15.82;;;;;;;7.69;85.14;103022.75;7395713;19;20424;-65
2023/12/15 07:36:12;;;;;;;29.52;14.65;;;;;;;7.65;85.22;103020.25;7393208;19;20479;-62
2023/12/15 07:38:41;;;;;;;28.02;14.70;;;;;;;7.72;85.13;103027.97;7396037;19;20018;-61
2023/12/15 07:41:08;;;;;;;27.38;14.05;;;;;;;7.76;85.24;103024.34;7393169;19;20035;-61
2023/12/15 07:43:37;;;;;;;33.70;14.68;;;;;;;7.72;85.23;103029.75;7396064;19;20513;-61
2023/12/15 07:46:05;;;;;;;30.23;13.93;;;;;;;7.76;85.12;103023.50;7393035;19;20361;-62
2023/12/15 07:48:33;;;;;;;30.67;14.80;;;;;;;7.78;85.17;103037.47;7393927;19;20026;-62
2023/12/15 07:51:03;;;;;;;33.45;14.70;;;;;;;7.77;85.17;103033.97;7391217;19;20105;-61
2023/12/15 07:53:31;;;;;;;31.05;14.50;;;;;;;7.77;85.45;103038.41;7395636;19;20375;-62
2023/12/15 07:55:59;;;;;;;32.00;14.63;;;;;;;7.85;85.48;103046.13;7394721;19;20571;-62
2023/12/15 07:58:27;;;;;;;27.58;13.82;;;;;;;7.90;85.05;103041.59;7394595;19;20029;-62
2023/12/15 08:00:54;;;;;;;33.33;15.07;;;;;;;7.97;85.08;103046.66;7393726;19;20023;-62
2023/12/15 08:03:22;;;;;;;26.33;13.23;;;;;;;7.96;85.07;103044.06;7393013;19;20034;-62
2023/12/15 08:05:50;;;;;;;30.13;13.55;;;;;;;7.95;85.18;103045.00;7392712;19;20015;-62
2023/12/15 08:08:18;;;;;;;27.48;12.57;;;;;;;7.89;85.62;103053.03;7394365;19;20029;-62
2023/12/15 08:10:46;;;;;;;27.77;12.73;;;;;;;7.85;85.58;103054.88;7392605;19;20007;-62
2023/12/15 08:13:15;;;;;;;27.75;13.55;;;;;;;7.86;85.54;103068.94;7394326;19;20015;-62
2023/12/15 08:15:43;;;;;;;29.92;14.20;;;;;;;7.95;85.37;103066.97;7394195;19;20014;-62
2023/12/15 08:18:11;;;;;;;33.47;13.45;;;;;;;7.95;85.60;103066.97;7393800;19;20019;-62
2023/12/15 08:20:39;;;;;;;26.23;14.07;;;;;;;7.96;85.13;103076.59;7392752;19;20010;-62
2023/12/15 08:23:07;;;;;;;31.48;14.88;;;;;;;8.00;85.42;103077.38;7393653;19;20022;-62
2023/12/15 08:25:35;;;;;;;31.65;14.70;;;;;;;8.02;85.19;103081.72;7392027;19;20014;-61
2023/12/15 08:28:03;;;;;;;31.05;14.52;;;;;;;8.11;85.14;103090.31;7393422;19;20035;-63
2023/12/15 08:30:31;;;;;;;28.73;13.95;;;;;;;8.13;85.16;103083.19;7392078;19;20367;-63
2023/12/15 08:33:01;;;;;;;30.30;13.75;;;;;;;8.10;85.11;103093.88;7393728;19;20014;-62
2023/12/15 08:35:30;;;;;;;28.50;14.68;;;;;;;8.13;85.39;103094.66;7393303;19;20010;-62
2023/12/15 08:37:58;;;;;;;25.60;13.20;;;;;;;8.21;84.77;103097.09;7393382;19;20017;-62
2023/12/15 08:40:27;;;;;;;24.83;14.52;;;;;;;8.19;85.14;103094.47;7391980;19;20503;-62
2023/12/15 08:42:55;;;;;;;32.67;14.13;;;;;;;8.19;85.09;103101.53;7392978;19;20022;-63
2023/12/15 08:45:22;;;;;;;30.30;14.52;;;;;;;8.22;85.13;103109.38;7390488;19;20023;-63
2023/12/15 08:47:50;;;;;;;28.08;13.50;;;;;;;8.19;85.26;103109.44;7393071;19;20670;-66
2023/12/15 08:50:19;;;;;;;29.33;12.75;;;;;;;8.20;85.44;103116.44;7391754;19;20022;-65
2023/12/15 08:52:46;;;;;;;33.30;13.05;;;;;;;8.20;85.40;103127.88;7393163;19;20014;-65
2023/12/15 08:55:15;;;;;;;25.85;12.68;;;;;;;8.20;85.20;103135.78;7393051;19;20622;-63
2023/12/15 08:57:42;;;;;;;27.63;12.45;;;;;;;8.20;85.17;103137.56;7391682;19;20019;-64
2023/12/15 09:00:11;;;;;;;32.08;13.02;;;;;;;8.18;85.46;103124.44;7391716;19;20513;-64
2023/12/15 09:02:38;;;;;;;32.05;14.70;;;;;;;8.33;84.90;103154.84;7393151;19;20096;-64
2023/12/15 09:05:07;;;;;;;27.98;13.30;;;;;;;8.37;84.53;103153.88;7392081;19;20024;-65
2023/12/15 09:07:54;;;;;;;27.05;12.60;;;;;;;8.33;85.04;103157.47;7392040;19;20026;-65
2023/12/15 09:10:22;;;;;;;31.30;12.60;;;;;;;8.38;84.76;103162.69;7392220;19;20014;-64
2023/12/15 09:12:51;;;;;;;26.17;12.20;;;;;;;8.33;85.18;103169.81;7397282;19;20014;-65
2023/12/15 09:15:19;;;;;;;26.45;12.77;;;;;;;8.45;84.86;103169.53;7396929;19;20010;-63
2023/12/15 09:17:47;;;;;;;30.02;12.63;;;;;;;8.45;84.45;103180.09;7392616;19;20014;-63
2023/12/15 09:20:18;;;;;;;31.17;11.88;;;;;;;8.50;84.37;103186.13;7391843;19;20382;-63
2023/12/15 09:22:46;;;;;;;23.45;11.27;;;;;;;8.45;84.54;103191.53;7392088;19;20018;-63
2023/12/15 09:25:14;;;;;;;24.42;11.23;;;;;;;8.49;84.55;103189.66;7391486;19;20343;-63
2023/12/15 09:27:42;;;;;;;25.35;10.93;;;;;;;8.45;84.99;103196.81;7391824;19;20023;-63
2023/12/15 09:30:10;;;;;;;28.30;11.88;;;;;;;8.53;84.80;103196.59;7390319;19;20015;-63
2023/12/15 09:32:38;;;;;;;26.90;11.90;;;;;;;8.54;84.73;103220.31;7391656;19;20019;-63
2023/12/15 09:35:07;;;;;;;29.80;11.95;;;;;;;8.53;84.72;103218.59;7391799;19;20015;-63
2023/12/15 09:37:35;;;;;;;25.48;10.60;;;;;;;8.66;84.26;103231.47;7391303;19;20024;-63
2023/12/15 09:40:04;;;;;;;27.27;11.07;;;;;;;8.69;84.36;103234.91;7388886;19;20022;-63
2023/12/15 09:42:32;;;;;;;28.60;11.10;;;;;;;8.67;84.52;103230.59;7391445;19;20022;-63
2023/12/15 09:45:00;;;;;;;25.85;10.75;;;;;;;8.68;84.29;103211.19;7390695;19;20026;-63
2023/12/15 09:47:37;;;;;;;28.15;11.00;;;;;;;8.76;84.20;103215.34;7390812;19;20479;-63
2023/12/15 09:50:09;;;;;;;26.75;11.07;;;;;;;8.85;84.08;103230.09;7390321;19;20018;-63
2023/12/15 09:52:39;;;;;;;26.58;9.70;;;;;;;8.89;83.88;103225.59;7391459;19;20033;-64
2023/12/15 09:55:08;;;;;;;24.85;9.45;;;;;;;8.83;83.63;103234.56;7390912;19;20027;-63
2023/12/15 09:57:37;;;;;;;24.20;10.18;;;;;;;8.92;83.52;103230.81;7390986;19;20348;-63
2023/12/15 10:00:09;;;;;;;27.05;10.45;;;;;;;8.91;83.48;103232.59;7389904;19;20019;-63
2023/12/15 10:02:37;;;;;;;23.20;9.55;;;;;;;8.97;83.64;103229.78;7390686;19;20574;-64
2023/12/15 10:05:06;;;;;;;23.08;10.18;;;;;;;8.97;83.35;103232.44;7389930;19;20022;-64
2023/12/15 10:07:34;;;;;;;28.08;9.93;;;;;;;9.10;82.66;103235.59;7390664;19;20510;-64
2023/12/15 10:10:02;;;;;;;25.30;9.93;;;;;;;9.17;82.42;103229.22;7387732;19;20188;-67
2023/12/15 10:12:30;;;;;;;23.45;10.05;;;;;;;9.13;82.46;103238.16;7390236;19;20023;-65
2023/12/15 10:14:58;;;;;;;28.25;10.32;;;;;;;9.12;82.55;103231.16;7390473;19;20018;-64
2023/12/15 10:17:27;;;;;;;26.00;10.30;;;;;;;9.11;82.82;103232.03;7388758;19;20019;-63
2023/12/15 10:20:09;;;;;;;23.05;9.20;;;;;;;9.10;82.50;103227.66;7390209;19;20023;-63
2023/12/15 10:22:38;;;;;;;27.58;10.00;;;;;;;9.10;82.82;103246.16;7397186;19;20035;-63
2023/12/15 10:25:16;;;;;;;22.60;8.93;;;;;;;9.19;82.56;103237.09;7396901;19;20022;-65
2023/12/15 10:27:44;;;;;;;23.75;9.65;;;;;;;9.13;82.89;103234.66;7397368;19;20026;-65
2023/12/15 10:30:13;;;;;;;24.38;10.20;;;;;;;9.20;82.67;103252.09;7395735;19;20039;-65
2023/12/15 10:32:42;;;;;;;28.95;9.48;;;;;;;9.22;82.49;103244.97;7397160;19;20487;-66
2023/12/15 10:35:10;;;;;;;24.08;8.95;;;;;;;9.29;82.23;103251.81;7397282;19;20042;-66
2023/12/15 10:37:39;;;;;;;25.92;9.43;;;;;;;9.28;81.88;103242.16;7397038;19;20014;-66
2023/12/15 10:40:07;;;;;;;23.35;9.32;;;;;;;9.26;82.09;103242.19;7395663;19;20030;-66
2023/12/15 10:42:35;;;;;;;30.95;9.20;;;;;;;9.24;81.91;103233.44;7397325;19;20033;-65
2023/12/15 10:45:07;;;;;;;23.80;8.52;;;;;;;9.14;82.25;103224.03;7396656;19;20456;-66
2023/12/15 10:47:35;;;;;;;24.55;8.13;;;;;;;9.19;81.89;103230.03;7396471;19;20018;-66
2023/12/15 10:50:04;;;;;;;24.98;8.80;;;;;;;9.23;82.02;103246.69;7395547;19;20022;-66
2023/12/15 10:52:35;;;;;;;25.38;8.85;;;;;;;9.31;81.67;103260.59;7396578;19;20014;-66
2023/12/15 10:55:06;;;;;;;23.77;8.57;;;;;;;9.34;81.61;103259.63;7396343;19;20037;-66
2023/12/15 10:57:34;;;;;;;23.13;8.65;;;;;;;9.35;81.55;103259.59;7396304;19;20014;-66
2023/12/15 11:00:04;;;;;;;25.75;8.10;;;;;;;9.45;81.17;103262.81;7394778;19;20019;-66
2023/12/15 11:02:34;;;;;;;27.33;8.38;;;;;;;9.42;81.15;103265.53;7396411;19;20031;-66
2023/12/15 11:05:03;;;;;;;22.10;9.15;;;;;;;9.39;81.40;103266.53;7395443;19;20371;-66
2023/12/15 11:07:31;;;;;;;22.45;7.88;;;;;;;9.41;81.46;103271.75;7395879;19;20015;-66
2023/12/15 11:09:59;;;;;;;24.98;8.38;;;;;;;9.43;81.40;103270.81;7395042;19;20039;-67
2023/12/15 11:12:33;;;;;;;22.45;7.85;;;;;;;9.47;80.98;103266.31;7396035;19;20083;-67
2023/12/15 11:15:07;;;;;;;20.42;7.57;;;;;;;9.51;81.09;103279.41;7395903;19;20018;-66
2023/12/15 11:18:01;;;;;;;24.65;8.02;;;;;;;9.44;81.04;103272.53;7395815;19;20014;-66
2023/12/15 11:20:33;;;;;;;20.70;7.70;;;;;;;9.48;81.14;103281.25;7393421;19;20018;-66
2023/12/15 11:23:07;;;;;;;23.90;7.82;;;;;;;9.40;81.01;103275.31;7394878;19;20381;-67